sensor_id;sensor_type;location;lat;lon;timestamp;P1;durP1;ratioP1;P2;durP2;ratioP2
1887;SDS011;944;51.574;6.980;2023-02-13T00:04:11;37.97;;;22.60;;
1887;SDS011;944;51.574;6.980;2023-02-13T00:11:04;36.33;;;22.37;;
1887;SDS011;944;51.574;6.980;2023-02-13T00:14:19;36.20;;;22.03;;
1887;SDS011;944;51.574;6.980;2023-02-13T00:17:20;36.87;;;23.27;;
1887;SDS011;944;51.574;6.980;2023-02-13T00:20:19;39.20;;;22.97;;
1887;SDS011;944;51.574;6.980;2023-02-13T00:24:29;43.60;;;22.83;;
1887;SDS011;944;51.574;6.980;2023-02-13T00:27:44;42.10;;;23.70;;
1887;SDS011;944;51.574;6.980;2023-02-13T02:57:19;18.83;;;10.90;;
1887;SDS011;944;51.574;6.980;2023-02-13T03:50:34;13.53;;;9.40;;
1887;SDS011;944;51.574;6.980;2023-02-13T05:18:13;10.30;;;6.80;;
1887;SDS011;944;51.574;6.980;2023-02-13T05:58:41;15.93;;;8.57;;
1887;SDS011;944;51.574;6.980;2023-02-13T06:02:07;13.27;;;7.97;;
1887;SDS011;944;51.574;6.980;2023-02-13T06:08:47;14.30;;;9.03;;
1887;SDS011;944;51.574;6.980;2023-02-13T06:15:23;19.70;;;8.40;;
1887;SDS011;944;51.574;6.980;2023-02-13T06:21:15;17.27;;;9.10;;
1887;SDS011;944;51.574;6.980;2023-02-13T06:28:24;16.00;;;9.30;;
1887;SDS011;944;51.574;6.980;2023-02-13T06:38:15;17.27;;;9.97;;
1887;SDS011;944;51.574;6.980;2023-02-13T06:41:12;15.40;;;9.63;;
1887;SDS011;944;51.574;6.980;2023-02-13T07:05:43;19.23;;;9.10;;
1887;SDS011;944;51.574;6.980;2023-02-13T07:19:29;21.07;;;12.07;;
1887;SDS011;944;51.574;6.980;2023-02-13T07:26:41;17.40;;;10.50;;
1887;SDS011;944;51.574;6.980;2023-02-13T07:37:05;19.10;;;11.63;;
1887;SDS011;944;51.574;6.980;2023-02-13T07:39:46;21.27;;;12.13;;
1887;SDS011;944;51.574;6.980;2023-02-13T08:15:28;14.40;;;9.60;;
1887;SDS011;944;51.574;6.980;2023-02-13T08:18:36;21.83;;;9.83;;
1887;SDS011;944;51.574;6.980;2023-02-13T08:21:29;16.00;;;10.40;;
1887;SDS011;944;51.574;6.980;2023-02-13T08:41:49;26.80;;;10.33;;
1887;SDS011;944;51.574;6.980;2023-02-13T08:44:50;15.20;;;10.00;;
1887;SDS011;944;51.574;6.980;2023-02-13T09:36:04;19.20;;;10.80;;
1887;SDS011;944;51.574;6.980;2023-02-13T09:38:33;20.50;;;10.10;;
1887;SDS011;944;51.574;6.980;2023-02-13T09:41:11;16.13;;;10.30;;
1887;SDS011;944;51.574;6.980;2023-02-13T09:43:55;16.00;;;10.83;;
1887;SDS011;944;51.574;6.980;2023-02-13T09:46:30;16.97;;;10.40;;
1887;SDS011;944;51.574;6.980;2023-02-13T09:49:04;21.23;;;10.13;;
1887;SDS011;944;51.574;6.980;2023-02-13T09:51:38;17.37;;;11.43;;
1887;SDS011;944;51.574;6.980;2023-02-13T09:54:10;22.10;;;11.20;;
1887;SDS011;944;51.574;6.980;2023-02-13T09:56:43;17.27;;;10.60;;
1887;SDS011;944;51.574;6.980;2023-02-13T09:59:24;19.30;;;10.97;;
1887;SDS011;944;51.574;6.980;2023-02-13T10:15:50;17.10;;;10.27;;
1887;SDS011;944;51.574;6.980;2023-02-13T10:19:10;20.60;;;10.30;;
1887;SDS011;944;51.574;6.980;2023-02-13T10:25:24;19.50;;;11.00;;
1887;SDS011;944;51.574;6.980;2023-02-13T10:32:14;15.03;;;10.10;;
1887;SDS011;944;51.574;6.980;2023-02-13T10:38:59;20.33;;;8.50;;
1887;SDS011;944;51.574;6.980;2023-02-13T10:42:05;12.80;;;8.97;;
1887;SDS011;944;51.574;6.980;2023-02-13T10:49:20;13.90;;;9.40;;
1887;SDS011;944;51.574;6.980;2023-02-13T11:04:15;18.77;;;9.77;;
1887;SDS011;944;51.574;6.980;2023-02-13T11:07:10;15.90;;;9.90;;
1887;SDS011;944;51.574;6.980;2023-02-13T11:10:04;14.67;;;9.27;;
1887;SDS011;944;51.574;6.980;2023-02-13T11:13:25;15.03;;;9.70;;
1887;SDS011;944;51.574;6.980;2023-02-13T11:18:17;15.70;;;9.33;;
1887;SDS011;944;51.574;6.980;2023-02-13T11:23:36;16.70;;;9.30;;
1887;SDS011;944;51.574;6.980;2023-02-13T11:26:09;16.47;;;10.10;;
1887;SDS011;944;51.574;6.980;2023-02-13T11:29:29;21.63;;;10.30;;
1887;SDS011;944;51.574;6.980;2023-02-13T11:32:22;13.73;;;8.80;;
1887;SDS011;944;51.574;6.980;2023-02-13T11:34:55;20.70;;;9.60;;
1887;SDS011;944;51.574;6.980;2023-02-13T11:38:23;14.40;;;8.73;;
1887;SDS011;944;51.574;6.980;2023-02-13T11:42:00;16.30;;;8.30;;
1887;SDS011;944;51.574;6.980;2023-02-13T11:45:01;15.20;;;8.40;;
1887;SDS011;944;51.574;6.980;2023-02-13T11:48:28;15.93;;;9.27;;
1887;SDS011;944;51.574;6.980;2023-02-13T11:54:37;15.77;;;9.70;;
1887;SDS011;944;51.574;6.980;2023-02-13T11:57:39;13.10;;;8.70;;
1887;SDS011;944;51.574;6.980;2023-02-13T12:01:20;14.90;;;9.00;;
1887;SDS011;944;51.574;6.980;2023-02-13T12:29:25;13.00;;;8.03;;
1887;SDS011;944;51.574;6.980;2023-02-13T12:47:07;11.10;;;7.70;;
1887;SDS011;944;51.574;6.980;2023-02-13T12:50:50;13.83;;;7.87;;
1887;SDS011;944;51.574;6.980;2023-02-13T12:54:13;13.90;;;7.67;;
1887;SDS011;944;51.574;6.980;2023-02-13T13:07:46;16.50;;;7.83;;
1887;SDS011;944;51.574;6.980;2023-02-13T13:10:45;11.97;;;8.07;;
1887;SDS011;944;51.574;6.980;2023-02-13T13:13:46;11.33;;;6.70;;
1887;SDS011;944;51.574;6.980;2023-02-13T13:16:49;14.17;;;7.90;;
1887;SDS011;944;51.574;6.980;2023-02-13T13:19:51;18.47;;;8.20;;
1887;SDS011;944;51.574;6.980;2023-02-13T13:22:31;10.90;;;7.33;;
1887;SDS011;944;51.574;6.980;2023-02-13T13:28:45;10.60;;;7.20;;
1887;SDS011;944;51.574;6.980;2023-02-13T13:31:17;13.03;;;7.50;;
1887;SDS011;944;51.574;6.980;2023-02-13T13:33:48;12.67;;;8.00;;
1887;SDS011;944;51.574;6.980;2023-02-13T13:36:20;12.70;;;7.53;;
1887;SDS011;944;51.574;6.980;2023-02-13T13:39:01;14.27;;;7.50;;
1887;SDS011;944;51.574;6.980;2023-02-13T13:41:40;12.10;;;7.57;;
1887;SDS011;944;51.574;6.980;2023-02-13T13:44:25;13.37;;;8.13;;
1887;SDS011;944;51.574;6.980;2023-02-13T13:47:12;12.13;;;7.40;;
1887;SDS011;944;51.574;6.980;2023-02-13T13:49:51;12.30;;;8.03;;
1887;SDS011;944;51.574;6.980;2023-02-13T13:52:22;11.20;;;7.70;;
1887;SDS011;944;51.574;6.980;2023-02-13T13:54:54;16.07;;;8.23;;
1887;SDS011;944;51.574;6.980;2023-02-13T13:57:32;12.17;;;7.40;;
1887;SDS011;944;51.574;6.980;2023-02-13T14:05:09;15.10;;;7.27;;
1887;SDS011;944;51.574;6.980;2023-02-13T14:08:51;12.40;;;7.57;;
1887;SDS011;944;51.574;6.980;2023-02-13T14:18:25;11.17;;;7.30;;
1887;SDS011;944;51.574;6.980;2023-02-13T14:28:20;16.87;;;7.10;;
1887;SDS011;944;51.574;6.980;2023-02-13T14:31:05;13.37;;;7.50;;
1887;SDS011;944;51.574;6.980;2023-02-13T14:34:05;9.20;;;6.40;;
1887;SDS011;944;51.574;6.980;2023-02-13T14:36:58;18.30;;;7.30;;
1887;SDS011;944;51.574;6.980;2023-02-13T14:42:56;11.17;;;7.23;;
1887;SDS011;944;51.574;6.980;2023-02-13T14:44:29;12.20;;;7.53;;
1887;SDS011;944;51.574;6.980;2023-02-13T14:47:00;12.87;;;7.20;;
1887;SDS011;944;51.574;6.980;2023-02-13T14:50:03;18.67;;;7.40;;
1887;SDS011;944;51.574;6.980;2023-02-13T15:35:59;15.00;;;8.40;;
1887;SDS011;944;51.574;6.980;2023-02-13T15:39:04;13.50;;;7.83;;
1887;SDS011;944;51.574;6.980;2023-02-13T15:41:37;13.63;;;7.97;;
1887;SDS011;944;51.574;6.980;2023-02-13T15:44:12;17.47;;;7.83;;
1887;SDS011;944;51.574;6.980;2023-02-13T16:14:50;11.30;;;7.73;;
1887;SDS011;944;51.574;6.980;2023-02-13T16:17:37;22.13;;;7.67;;
1887;SDS011;944;51.574;6.980;2023-02-13T16:20:20;13.30;;;7.83;;
1887;SDS011;944;51.574;6.980;2023-02-13T16:23:00;11.97;;;7.50;;
1887;SDS011;944;51.574;6.980;2023-02-13T16:25:34;16.07;;;9.30;;
1887;SDS011;944;51.574;6.980;2023-02-13T16:28:24;11.63;;;8.40;;
1887;SDS011;944;51.574;6.980;2023-02-13T16:33:50;14.50;;;8.33;;
1887;SDS011;944;51.574;6.980;2023-02-13T16:36:51;13.00;;;8.20;;
1887;SDS011;944;51.574;6.980;2023-02-13T17:20:12;21.63;;;9.37;;
1887;SDS011;944;51.574;6.980;2023-02-13T17:22:42;27.80;;;10.60;;
1887;SDS011;944;51.574;6.980;2023-02-13T17:25:15;18.20;;;10.33;;
1887;SDS011;944;51.574;6.980;2023-02-13T17:27:46;13.60;;;9.53;;
1887;SDS011;944;51.574;6.980;2023-02-13T17:30:14;16.53;;;10.27;;
1887;SDS011;944;51.574;6.980;2023-02-13T17:32:48;18.30;;;9.97;;
1887;SDS011;944;51.574;6.980;2023-02-13T17:35:27;17.87;;;9.80;;
1887;SDS011;944;51.574;6.980;2023-02-13T17:37:54;20.07;;;10.50;;
1887;SDS011;944;51.574;6.980;2023-02-13T17:40:22;21.93;;;11.50;;
1887;SDS011;944;51.574;6.980;2023-02-13T17:42:53;14.23;;;9.30;;
1887;SDS011;944;51.574;6.980;2023-02-13T17:45:27;18.17;;;10.10;;
1887;SDS011;944;51.574;6.980;2023-02-13T17:48:01;18.67;;;10.43;;
1887;SDS011;944;51.574;6.980;2023-02-13T17:54:04;17.10;;;9.33;;
1887;SDS011;944;51.574;6.980;2023-02-13T17:57:04;21.20;;;9.67;;
1887;SDS011;944;51.574;6.980;2023-02-13T17:59:31;17.33;;;10.63;;
1887;SDS011;944;51.574;6.980;2023-02-13T18:01:58;15.90;;;8.70;;
1887;SDS011;944;51.574;6.980;2023-02-13T18:04:30;19.93;;;9.40;;
1887;SDS011;944;51.574;6.980;2023-02-13T18:07:04;15.67;;;9.10;;
1887;SDS011;944;51.574;6.980;2023-02-13T19:07:44;16.07;;;9.67;;
1887;SDS011;944;51.574;6.980;2023-02-13T19:11:03;16.70;;;10.23;;
1887;SDS011;944;51.574;6.980;2023-02-13T19:17:29;19.53;;;11.30;;
1887;SDS011;944;51.574;6.980;2023-02-13T19:20:56;16.53;;;10.60;;
1887;SDS011;944;51.574;6.980;2023-02-13T19:38:28;18.23;;;11.37;;
1887;SDS011;944;51.574;6.980;2023-02-13T19:45:45;19.23;;;12.27;;
1887;SDS011;944;51.574;6.980;2023-02-13T19:48:55;15.53;;;11.57;;
1887;SDS011;944;51.574;6.980;2023-02-13T20:13:02;18.10;;;12.87;;
1887;SDS011;944;51.574;6.980;2023-02-13T20:14:05;20.87;;;12.70;;
1887;SDS011;944;51.574;6.980;2023-02-13T20:16:55;17.87;;;12.03;;
1887;SDS011;944;51.574;6.980;2023-02-13T20:20:14;22.73;;;12.60;;
1887;SDS011;944;51.574;6.980;2023-02-13T20:45:50;20.50;;;12.73;;
1887;SDS011;944;51.574;6.980;2023-02-13T20:49:36;19.47;;;12.67;;
1887;SDS011;944;51.574;6.980;2023-02-13T20:52:09;18.17;;;12.33;;
1887;SDS011;944;51.574;6.980;2023-02-13T20:55:32;20.27;;;13.27;;
1887;SDS011;944;51.574;6.980;2023-02-13T21:16:02;19.43;;;12.20;;
1887;SDS011;944;51.574;6.980;2023-02-13T21:19:38;20.43;;;13.00;;
1887;SDS011;944;51.574;6.980;2023-02-13T21:22:19;22.73;;;12.23;;
1887;SDS011;944;51.574;6.980;2023-02-13T21:25:21;21.60;;;13.17;;
1887;SDS011;944;51.574;6.980;2023-02-13T21:29:11;24.13;;;14.90;;
1887;SDS011;944;51.574;6.980;2023-02-13T21:31:31;23.37;;;12.67;;
1887;SDS011;944;51.574;6.980;2023-02-13T21:34:32;23.40;;;13.30;;
1887;SDS011;944;51.574;6.980;2023-02-13T21:37:23;18.20;;;12.47;;
1887;SDS011;944;51.574;6.980;2023-02-13T21:40:00;21.50;;;13.73;;
1887;SDS011;944;51.574;6.980;2023-02-13T21:42:52;22.50;;;14.47;;
1887;SDS011;944;51.574;6.980;2023-02-13T21:45:29;21.63;;;14.37;;
1887;SDS011;944;51.574;6.980;2023-02-13T21:48:18;24.93;;;14.10;;
1887;SDS011;944;51.574;6.980;2023-02-13T21:51:14;20.17;;;14.00;;
1887;SDS011;944;51.574;6.980;2023-02-13T21:53:46;26.13;;;14.87;;
1887;SDS011;944;51.574;6.980;2023-02-13T21:56:25;23.80;;;13.90;;
1887;SDS011;944;51.574;6.980;2023-02-13T21:59:09;25.73;;;15.00;;
1887;SDS011;944;51.574;6.980;2023-02-13T22:01:58;29.23;;;14.77;;
1887;SDS011;944;51.574;6.980;2023-02-13T22:04:26;26.70;;;14.03;;
1887;SDS011;944;51.574;6.980;2023-02-13T22:07:04;21.47;;;13.50;;
1887;SDS011;944;51.574;6.980;2023-02-13T22:09:33;25.50;;;15.80;;
1887;SDS011;944;51.574;6.980;2023-02-13T22:12:05;23.90;;;15.53;;
1887;SDS011;944;51.574;6.980;2023-02-13T22:14:56;28.27;;;15.30;;
1887;SDS011;944;51.574;6.980;2023-02-13T22:17:23;23.67;;;14.67;;
1887;SDS011;944;51.574;6.980;2023-02-13T22:19:57;25.63;;;14.87;;
1887;SDS011;944;51.574;6.980;2023-02-13T22:22:26;25.83;;;14.77;;
1887;SDS011;944;51.574;6.980;2023-02-13T22:25:00;27.67;;;15.60;;
1887;SDS011;944;51.574;6.980;2023-02-13T22:27:31;24.33;;;15.13;;
1887;SDS011;944;51.574;6.980;2023-02-13T22:30:00;25.27;;;14.40;;
1887;SDS011;944;51.574;6.980;2023-02-13T22:32:30;26.80;;;15.03;;
1887;SDS011;944;51.574;6.980;2023-02-13T22:34:58;30.10;;;15.30;;
1887;SDS011;944;51.574;6.980;2023-02-13T22:37:25;26.87;;;14.93;;
1887;SDS011;944;51.574;6.980;2023-02-13T22:39:52;21.40;;;13.37;;
1887;SDS011;944;51.574;6.980;2023-02-13T22:42:19;26.80;;;14.20;;
1887;SDS011;944;51.574;6.980;2023-02-13T22:44:48;23.90;;;13.80;;
1887;SDS011;944;51.574;6.980;2023-02-13T22:47:15;22.87;;;14.87;;
1887;SDS011;944;51.574;6.980;2023-02-13T22:49:45;26.60;;;14.97;;
1887;SDS011;944;51.574;6.980;2023-02-13T22:52:17;25.20;;;13.77;;
1887;SDS011;944;51.574;6.980;2023-02-13T22:55:30;24.30;;;14.57;;
1887;SDS011;944;51.574;6.980;2023-02-13T22:58:00;27.87;;;15.97;;
1887;SDS011;944;51.574;6.980;2023-02-13T23:00:28;23.87;;;15.03;;
1887;SDS011;944;51.574;6.980;2023-02-13T23:02:55;23.57;;;14.70;;
1887;SDS011;944;51.574;6.980;2023-02-13T23:05:23;31.17;;;15.27;;
1887;SDS011;944;51.574;6.980;2023-02-13T23:07:51;25.27;;;15.57;;
1887;SDS011;944;51.574;6.980;2023-02-13T23:10:18;27.23;;;16.40;;
1887;SDS011;944;51.574;6.980;2023-02-13T23:12:49;27.03;;;15.83;;
1887;SDS011;944;51.574;6.980;2023-02-13T23:15:18;24.90;;;15.90;;
1887;SDS011;944;51.574;6.980;2023-02-13T23:17:47;28.73;;;16.00;;
1887;SDS011;944;51.574;6.980;2023-02-13T23:20:34;24.83;;;14.80;;
1887;SDS011;944;51.574;6.980;2023-02-13T23:23:02;26.63;;;14.70;;
1887;SDS011;944;51.574;6.980;2023-02-13T23:25:29;30.93;;;16.10;;
1887;SDS011;944;51.574;6.980;2023-02-13T23:27:56;26.57;;;14.67;;
1887;SDS011;944;51.574;6.980;2023-02-13T23:30:23;24.77;;;15.03;;
1887;SDS011;944;51.574;6.980;2023-02-13T23:32:53;22.80;;;14.60;;
1887;SDS011;944;51.574;6.980;2023-02-13T23:38:59;30.90;;;16.20;;
1887;SDS011;944;51.574;6.980;2023-02-13T23:41:51;25.40;;;16.27;;
1887;SDS011;944;51.574;6.980;2023-02-13T23:44:21;27.37;;;16.40;;
1887;SDS011;944;51.574;6.980;2023-02-13T23:46:50;28.07;;;15.23;;
1887;SDS011;944;51.574;6.980;2023-02-13T23:49:18;27.63;;;15.60;;
1887;SDS011;944;51.574;6.980;2023-02-13T23:51:46;28.77;;;14.23;;
1887;SDS011;944;51.574;6.980;2023-02-13T23:54:20;21.30;;;14.67;;
1887;SDS011;944;51.574;6.980;2023-02-13T23:56:49;23.23;;;14.43;;
1887;SDS011;944;51.574;6.980;2023-02-13T23:59:20;20.27;;;13.30;;
